Wetterdaten: aktuell Freitag, 22.06.2018 10:45
Datum Zeit Temp. A. Feuchte A. Luftdruck Regen Wind Richtung Richtung Taupunkt Windchill Windben
22.06.2018 10:45 15,1 C 76 % 1022,4 hPa 0,0 l/m 3,8 km/h (1 Bft) O-SO 104 10,9 C 15,1 C 17,7 km/h (3 Bft)
22.06.2018 10:30 14,0 C 79 % 1022,3 hPa 0,0 l/m 4,3 km/h (1 Bft) SO 129 10,4 C 14,0 C 19,3 km/h (3 Bft)
22.06.2018 10:15 14,0 C 78 % 1022,1 hPa 0,0 l/m 3,7 km/h (1 Bft) O-SO 121 10,2 C 14,0 C 17,7 km/h (3 Bft)
22.06.2018 10:00 14,0 C 79 % 1022,0 hPa 0,0 l/m 4,8 km/h (1 Bft) SO 128 10,4 C 14,0 C 24,1 km/h (4 Bft)
22.06.2018 09:45 13,7 C 83 % 1022,0 hPa 0,0 l/m 2,7 km/h (1 Bft) SO 130 10,9 C 13,7 C 12,9 km/h (3 Bft)
22.06.2018 09:30 13,2 C 83 % 1022,0 hPa 0,0 l/m 4,4 km/h (1 Bft) O 99 10,4 C 13,2 C 19,3 km/h (3 Bft)
22.06.2018 09:17 12,7 C 88 % 1021,8 hPa 0,0 l/m 3,5 km/h (1 Bft) O 94 10,8 C 12,7 C 17,7 km/h (3 Bft)
22.06.2018 09:00 11,9 C 91 % 1021,7 hPa 0,0 l/m 3,9 km/h (1 Bft) O 90 10,5 C 11,9 C 20,9 km/h (4 Bft)
22.06.2018 08:46 11,4 C 91 % 1021,6 hPa 0,0 l/m 2,2 km/h (1 Bft) O 83 10,0 C 11,4 C 16,1 km/h (3 Bft)
22.06.2018 08:30 11,3 C 92 % 1021,4 hPa 0,0 l/m 2,7 km/h (1 Bft) SO 124 10,0 C 11,3 C 16,1 km/h (3 Bft)
22.06.2018 08:15 11,2 C 92 % 1021,3 hPa 0,0 l/m 2,8 km/h (1 Bft) O 91 9,9 C 11,2 C 19,3 km/h (3 Bft)
22.06.2018 08:00 10,6 C 93 % 1021,1 hPa 0,0 l/m 2,8 km/h (1 Bft) O 91 9,5 C 10,6 C 19,3 km/h (3 Bft)
22.06.2018 07:45 10,2 C 92 % 1021,0 hPa 0,0 l/m 3,7 km/h (1 Bft) O-NO 71 9,0 C 10,2 C 17,7 km/h (3 Bft)
22.06.2018 07:30 9,8 C 92 % 1020,7 hPa 0,3 l/m 4,1 km/h (1 Bft) NO 53 8,6 C 9,8 C 19,3 km/h (3 Bft)
22.06.2018 07:15 9,7 C 92 % 1020,8 hPa 0,3 l/m 3,3 km/h (1 Bft) O 81 8,5 C 9,7 C 14,5 km/h (3 Bft)
22.06.2018 07:00 9,8 C 91 % 1020,7 hPa 1,0 l/m 4,4 km/h (1 Bft) NO 39 8,4 C 9,8 C 17,7 km/h (3 Bft)
22.06.2018 06:45 9,9 C 91 % 1020,5 hPa 1,0 l/m 6,7 km/h (2 Bft) O 93 8,5 C 9,7 C 24,1 km/h (4 Bft)
22.06.2018 06:30 10,0 C 92 % 1020,4 hPa 0,8 l/m 7,5 km/h (2 Bft) O 83 8,8 C 9,2 C 24,1 km/h (4 Bft)
22.06.2018 06:15 10,1 C 93 % 1020,1 hPa 0,0 l/m 5,7 km/h (1 Bft) O-NO 72 9,0 C 10,1 C 22,5 km/h (4 Bft)
22.06.2018 06:00 10,3 C 93 % 1020,4 hPa 0,3 l/m 0,3 km/h (0 Bft) O 82 9,2 C 10,3 C 8,0 km/h (2 Bft)
22.06.2018 05:45 10,3 C 92 % 1020,2 hPa 1,0 l/m 0,9 km/h (0 Bft) O-NO 73 9,1 C 10,3 C 12,9 km/h (3 Bft)
22.06.2018 05:30 10,3 C 92 % 1020,3 hPa 0,3 l/m 6,2 km/h (2 Bft) O 100 9,1 C 10,3 C 22,5 km/h (4 Bft)
22.06.2018 05:15 10,3 C 91 % 1020,5 hPa 0,0 l/m 7,8 km/h (2 Bft) O 80 8,9 C 9,3 C 25,7 km/h (4 Bft)
22.06.2018 05:00 10,2 C 91 % 1020,5 hPa 0,0 l/m 10,0 km/h (2 Bft) O 95 8,8 C 7,8 C 24,1 km/h (4 Bft)
22.06.2018 04:46 10,2 C 91 % 1020,5 hPa 0,0 l/m 7,9 km/h (2 Bft) NO 52 8,8 C 9,1 C 22,5 km/h (4 Bft)
22.06.2018 04:30 10,1 C 90 % 1020,5 hPa 0,0 l/m 8,9 km/h (2 Bft) O 84 8,5 C 8,4 C 20,9 km/h (4 Bft)
22.06.2018 04:15 10,1 C 90 % 1020,7 hPa 0,0 l/m 7,5 km/h (2 Bft) O-NO 70 8,5 C 9,3 C 20,9 km/h (4 Bft)
22.06.2018 04:00 10,0 C 90 % 1020,7 hPa 0,0 l/m 6,7 km/h (2 Bft) O-NO 70 8,4 C 9,8 C 19,3 km/h (3 Bft)
22.06.2018 03:45 9,9 C 90 % 1020,8 hPa 0,0 l/m 7,1 km/h (2 Bft) NO 42 8,3 C 9,4 C 22,5 km/h (4 Bft)
22.06.2018 03:30 9,8 C 90 % 1020,7 hPa 0,0 l/m 6,4 km/h (2 Bft) NO 52 8,2 C 9,8 C 17,7 km/h (3 Bft)
22.06.2018 03:15 9,7 C 91 % 1021,0 hPa 0,0 l/m 5,2 km/h (1 Bft) O-NO 57 8,3 C 9,7 C 19,3 km/h (3 Bft)
22.06.2018 03:00 9,7 C 91 % 1021,1 hPa 0,0 l/m 5,7 km/h (1 Bft) O-NO 57 8,3 C 9,7 C 22,5 km/h (4 Bft)
22.06.2018 02:45 9,7 C 91 % 1021,2 hPa 0,0 l/m 5,1 km/h (1 Bft) NO 40 8,3 C 9,7 C 16,1 km/h (3 Bft)
22.06.2018 02:30 9,7 C 91 % 1021,3 hPa 0,0 l/m 4,5 km/h (1 Bft) O-NO 71 8,3 C 9,7 C 17,7 km/h (3 Bft)
22.06.2018 02:15 9,6 C 91 % 1021,4 hPa 0,0 l/m 4,3 km/h (1 Bft) O-NO 61 8,2 C 9,6 C 16,1 km/h (3 Bft)
22.06.2018 02:00 9,6 C 90 % 1021,6 hPa 0,3 l/m 3,3 km/h (1 Bft) O-NO 77 8,0 C 9,6 C 14,5 km/h (3 Bft)
22.06.2018 01:45 9,6 C 90 % 1021,7 hPa 0,0 l/m 4,1 km/h (1 Bft) O 85 8,0 C 9,6 C 17,7 km/h (3 Bft)
22.06.2018 01:30 9,7 C 90 % 1021,8 hPa 0,0 l/m 2,7 km/h (1 Bft) O-NO 78 8,1 C 9,7 C 9,7 km/h (2 Bft)
22.06.2018 01:15 9,9 C 89 % 1022,0 hPa 0,3 l/m 0,9 km/h (0 Bft) O-NO 70 8,2 C 9,9 C 9,7 km/h (2 Bft)
22.06.2018 01:00 10,1 C 88 % 1022,2 hPa 0,5 l/m 0,1 km/h (0 Bft) O-SO 115 8,2 C 10,1 C 1,6 km/h (1 Bft)
22.06.2018 00:48 10,3 C 87 % 1022,1 hPa 0,3 l/m 2,0 km/h (1 Bft) O 101 8,2 C 10,3 C 16,1 km/h (3 Bft)
22.06.2018 00:30 10,2 C 86 % 1021,9 hPa 0,0 l/m 3,6 km/h (1 Bft) O 81 8,0 C 10,2 C 20,9 km/h (4 Bft)
22.06.2018 00:16 10,3 C 86 % 1022,0 hPa 0,0 l/m 3,0 km/h (1 Bft) O-NO 64 8,1 C 10,3 C 22,5 km/h (4 Bft)
22.06.2018 00:00 10,5 C 85 % 1022,3 hPa 0,0 l/m 3,9 km/h (1 Bft) O 79 8,1 C 10,5 C 19,3 km/h (3 Bft)
21.06.2018 23:45 10,3 C 85 % 1022,2 hPa 0,0 l/m 4,8 km/h (1 Bft) O 88 7,9 C 10,3 C 20,9 km/h (4 Bft)
21.06.2018 23:30 10,3 C 85 % 1022,1 hPa 0,0 l/m 3,9 km/h (1 Bft) O-NO 68 7,9 C 10,3 C 16,1 km/h (3 Bft)
21.06.2018 23:15 10,4 C 85 % 1022,0 hPa 0,0 l/m 2,6 km/h (1 Bft) O 88 8,0 C 10,4 C 12,9 km/h (3 Bft)
21.06.2018 23:00 10,7 C 84 % 1022,0 hPa 0,0 l/m 2,5 km/h (1 Bft) O-NO 57 8,1 C 10,7 C 11,3 km/h (2 Bft)
21.06.2018 22:45 10,8 C 83 % 1021,9 hPa 0,0 l/m 1,6 km/h (1 Bft) O-NO 75 8,0 C 10,8 C 9,7 km/h (2 Bft)
21.06.2018 22:30 11,0 C 82 % 1022,1 hPa 0,0 l/m 1,4 km/h (1 Bft) O 95 8,0 C 11,0 C 12,9 km/h (3 Bft)
21.06.2018 22:16 11,0 C 82 % 1022,0 hPa 0,0 l/m 1,1 km/h (1 Bft) O 82 8,0 C 11,0 C 9,7 km/h (2 Bft)
21.06.2018 22:00 11,1 C 82 % 1021,9 hPa 0,0 l/m 1,1 km/h (1 Bft) O 98 8,1 C 11,1 C 8,0 km/h (2 Bft)
21.06.2018 21:45 11,2 C 82 % 1021,8 hPa 0,0 l/m 1,2 km/h (1 Bft) O-SO 102 8,2 C 11,2 C 11,3 km/h (2 Bft)
21.06.2018 21:30 11,4 C 82 % 1021,7 hPa 0,0 l/m 1,1 km/h (1 Bft) O-NO 76 8,4 C 11,4 C 11,3 km/h (2 Bft)
21.06.2018 21:15 11,8 C 81 % 1021,7 hPa 0,0 l/m 1,2 km/h (1 Bft) O 79 8,6 C 11,8 C 8,0 km/h (2 Bft)
21.06.2018 21:00 12,3 C 79 % 1021,6 hPa 0,0 l/m 2,1 km/h (1 Bft) O 80 8,8 C 12,3 C 20,9 km/h (4 Bft)
21.06.2018 20:45 12,9 C 71 % 1021,7 hPa 0,0 l/m 3,3 km/h (1 Bft) O 100 7,8 C 12,9 C 19,3 km/h (3 Bft)
21.06.2018 20:30 13,3 C 71 % 1021,4 hPa 0,0 l/m 2,3 km/h (1 Bft) O-SO 109 8,2 C 13,3 C 17,7 km/h (3 Bft)
21.06.2018 20:16 13,5 C 73 % 1021,3 hPa 0,0 l/m 1,4 km/h (1 Bft) O-NO 76 8,8 C 13,5 C 12,9 km/h (3 Bft)
21.06.2018 20:01 13,3 C 75 % 1021,2 hPa 0,0 l/m 1,7 km/h (1 Bft) SO 128 9,0 C 13,3 C 12,9 km/h (3 Bft)
21.06.2018 19:45 13,1 C 75 % 1021,1 hPa 0,0 l/m 2,1 km/h (1 Bft) SO 132 8,8 C 13,1 C 22,5 km/h (4 Bft)
21.06.2018 19:30 14,3 C 67 % 1021,1 hPa 0,0 l/m 5,7 km/h (1 Bft) O 101 8,3 C 14,3 C 40,2 km/h (6 Bft)
21.06.2018 19:15 14,7 C 68 % 1020,6 hPa 0,0 l/m 2,8 km/h (1 Bft) SO 143 8,9 C 14,7 C 19,3 km/h (3 Bft)
21.06.2018 19:00 15,0 C 74 % 1020,4 hPa 0,3 l/m 0,9 km/h (0 Bft) SO 142 10,4 C 15,0 C 16,1 km/h (3 Bft)
21.06.2018 18:45 15,7 C 66 % 1020,4 hPa 0,0 l/m 1,8 km/h (1 Bft) O-SO 113 9,4 C 15,7 C 14,5 km/h (3 Bft)
21.06.2018 18:30 16,1 C 63 % 1020,3 hPa 0,0 l/m 3,1 km/h (1 Bft) O-SO 123 9,1 C 16,1 C 17,7 km/h (3 Bft)
21.06.2018 18:15 16,2 C 62 % 1020,1 hPa 0,0 l/m 3,3 km/h (1 Bft) O 100 8,9 C 16,2 C 22,5 km/h (4 Bft)
21.06.2018 18:00 16,0 C 60 % 1019,9 hPa 0,0 l/m 3,1 km/h (1 Bft) O-SO 114 8,2 C 16,0 C 20,9 km/h (4 Bft)
21.06.2018 17:45 16,6 C 63 % 1019,9 hPa 0,0 l/m 6,7 km/h (2 Bft) O-SO 119 9,5 C 16,5 C 25,7 km/h (4 Bft)
21.06.2018 17:30 17,0 C 61 % 1019,6 hPa 0,0 l/m 3,2 km/h (1 Bft) SO 133 9,4 C 17,0 C 20,9 km/h (4 Bft)
21.06.2018 17:15 16,4 C 63 % 1019,7 hPa 0,0 l/m 3,6 km/h (1 Bft) O 88 9,3 C 16,4 C 20,9 km/h (4 Bft)
21.06.2018 17:00 15,7 C 67 % 1019,6 hPa 0,0 l/m 4,3 km/h (1 Bft) O-SO 107 9,6 C 15,7 C 24,1 km/h (4 Bft)
21.06.2018 16:45 15,9 C 66 % 1019,7 hPa 0,0 l/m 5,0 km/h (1 Bft) O-SO 114 9,6 C 15,9 C 27,4 km/h (4 Bft)
21.06.2018 16:30 16,1 C 64 % 1019,4 hPa 0,0 l/m 4,0 km/h (1 Bft) O 95 9,3 C 16,1 C 17,7 km/h (3 Bft)
21.06.2018 16:15 16,9 C 59 % 1019,3 hPa 0,0 l/m 4,2 km/h (1 Bft) S 169 8,8 C 16,9 C 27,4 km/h (4 Bft)
21.06.2018 16:00 18,0 C 53 % 1018,8 hPa 0,0 l/m 5,3 km/h (1 Bft) O-NO 76 8,3 C 18,0 C 25,7 km/h (4 Bft)
21.06.2018 15:45 17,9 C 50 % 1019,0 hPa 0,0 l/m 9,6 km/h (2 Bft) O 95 7,3 C 16,5 C 35,4 km/h (5 Bft)
21.06.2018 15:30 17,8 C 50 % 1018,4 hPa 0,0 l/m 7,2 km/h (2 Bft) O-SO 123 7,2 C 17,4 C 29,0 km/h (5 Bft)
21.06.2018 15:15 18,4 C 48 % 1018,3 hPa 0,0 l/m 6,9 km/h (2 Bft) NO 36 7,2 C 18,2 C 9,7 km/h (2 Bft)
21.06.2018 15:00 18,3 C 47 % 1018,1 hPa 0,0 l/m 6,4 km/h (2 Bft) O 90 6,8 C 18,3 C 29,0 km/h (5 Bft)
21.06.2018 14:45 18,4 C 48 % 1018,1 hPa 0,0 l/m 6,4 km/h (2 Bft) O 90 7,2 C 18,4 C 24,1 km/h (4 Bft)
21.06.2018 14:30 18,4 C 48 % 1018,0 hPa 0,0 l/m 8,1 km/h (2 Bft) SO 126 7,2 C 17,6 C 37,0 km/h (5 Bft)
21.06.2018 14:15 18,6 C 46 % 1017,7 hPa 0,0 l/m 8,5 km/h (2 Bft) O-SO 116 6,8 C 17,7 C 35,4 km/h (5 Bft)
21.06.2018 14:00 18,2 C 48 % 1017,5 hPa 0,0 l/m 9,5 km/h (2 Bft) O 81 7,0 C 16,8 C 30,6 km/h (5 Bft)
21.06.2018 13:45 17,8 C 51 % 1017,2 hPa 0,0 l/m 7,6 km/h (2 Bft) O 85 7,5 C 17,2 C 38,6 km/h (5 Bft)
21.06.2018 13:30 17,2 C 54 % 1017,1 hPa 0,0 l/m 6,4 km/h (2 Bft) O-SO 107 7,8 C 17,2 C 29,0 km/h (5 Bft)
21.06.2018 13:15 17,9 C 55 % 1016,9 hPa 0,0 l/m 3,9 km/h (1 Bft) SO 133 8,7 C 17,9 C 17,7 km/h (3 Bft)
21.06.2018 13:00 17,6 C 58 % 1016,9 hPa 0,0 l/m 6,4 km/h (2 Bft) O-SO 112 9,2 C 17,6 C 27,4 km/h (4 Bft)
21.06.2018 12:45 18,1 C 56 % 1016,4 hPa 0,0 l/m 4,8 km/h (1 Bft) O 90 9,2 C 18,1 C 30,6 km/h (5 Bft)
21.06.2018 12:30 17,6 C 59 % 1016,3 hPa 0,0 l/m 6,4 km/h (2 Bft) O 90 9,5 C 17,6 C 30,6 km/h (5 Bft)
21.06.2018 12:15 17,0 C 63 % 1016,0 hPa 0,0 l/m 6,4 km/h (2 Bft) O 90 9,9 C 17,0 C 25,7 km/h (4 Bft)
21.06.2018 12:00 16,7 C 65 % 1015,8 hPa 0,0 l/m 6,4 km/h (2 Bft) O 90 10,1 C 16,7 C 24,1 km/h (4 Bft)
21.06.2018 11:45 16,7 C 73 % 1015,7 hPa 0,0 l/m 6,2 km/h (2 Bft) O-NO 65 11,8 C 16,7 C 32,2 km/h (5 Bft)
21.06.2018 11:30 16,4 C 79 % 1015,4 hPa 0,3 l/m 5,7 km/h (1 Bft) O-NO 78 12,7 C 16,4 C 24,1 km/h (4 Bft)
21.06.2018 11:15 15,3 C 84 % 1015,4 hPa 0,0 l/m 6,6 km/h (2 Bft) NO 49 12,6 C 15,2 C 25,7 km/h (4 Bft)
21.06.2018 11:00 16,1 C 83 % 1015,2 hPa 0,0 l/m 6,9 km/h (2 Bft) O 99 13,2 C 15,8 C 20,9 km/h (4 Bft)
_ Min-Zeit 02:15 14:15 11:00 - 01:00 - - 14:15 05:00 01:00
Minimum _ 9,5 C 46 % 1015,2 hPa - 0,1 km/h (0 Bft) - - 6,8 C 7,8 C 1,6 km/h (1 Bft)
_ Max-Zeit 14:15 06:00 10:45 05:45 05:00 - - 11:00 14:45 19:30
Maximum _ 18,6 C 93 % 1022,4 hPa 1,0 l/m 10,0 km/h
O (2 Bft)
- - 13,2 C 18,4 C 40,2 km/h
O-SO (6 Bft)
Durchschnitt _ 13,3 C 77 % 1019,9 hPa #6,6 l/m 4,6 km/h (1 Bft) O - 9,2 C 13,2 C 20,2 km/h (4 Bft)